createdAt,value
2023-03-25T00:01:17.302Z,14.90
2023-03-25T00:03:50.442Z,14.90
2023-03-25T00:06:19.335Z,14.90
2023-03-25T00:08:47.008Z,14.80
2023-03-25T00:11:15.761Z,14.80
2023-03-25T00:13:42.793Z,14.70
2023-03-25T00:16:10.970Z,14.70
2023-03-25T00:18:38.141Z,14.70
2023-03-25T00:21:11.198Z,14.70
2023-03-25T00:23:41.353Z,14.70
2023-03-25T00:26:09.485Z,14.60
2023-03-25T00:28:39.186Z,14.60
2023-03-25T00:31:12.438Z,14.60
2023-03-25T00:33:42.095Z,14.60
2023-03-25T00:36:13.858Z,14.50
2023-03-25T00:38:43.718Z,14.50
2023-03-25T00:41:27.460Z,14.50
2023-03-25T00:43:57.423Z,14.40
2023-03-25T00:46:27.959Z,14.40
2023-03-25T00:48:57.087Z,14.40
2023-03-25T00:51:27.348Z,14.40
2023-03-25T00:54:00.541Z,14.40
2023-03-25T00:56:31.063Z,14.40
2023-03-25T00:58:58.632Z,14.40
2023-03-25T01:01:29.315Z,14.30
2023-03-25T01:04:00.097Z,14.30
2023-03-25T01:06:36.255Z,14.30
2023-03-25T01:09:08.510Z,14.30
2023-03-25T01:11:38.425Z,14.30
2023-03-25T01:14:11.654Z,14.30
2023-03-25T01:16:39.943Z,14.20
2023-03-25T01:19:07.437Z,14.20
2023-03-25T01:21:36.903Z,14.20
2023-03-25T01:24:06.194Z,14.20
2023-03-25T01:26:34.334Z,14.20
2023-03-25T01:29:01.558Z,14.20
2023-03-25T01:31:30.661Z,14.20
2023-03-25T01:33:59.187Z,14.20
2023-03-25T01:36:30.031Z,14.20
2023-03-25T01:38:59.746Z,14.20
2023-03-25T01:41:39.094Z,14.20
2023-03-25T01:44:22.456Z,14.20
2023-03-25T01:46:54.121Z,14.10
2023-03-25T01:49:39.195Z,14.10
2023-03-25T01:55:07.165Z,14.10
2023-03-25T01:57:34.537Z,14.10
2023-03-25T02:00:02.309Z,14.10
2023-03-25T02:02:40.689Z,14.10
2023-03-25T02:05:22.835Z,14.10
2023-03-25T02:07:50.588Z,14.00
2023-03-25T02:10:19.451Z,14.00
2023-03-25T02:12:47.512Z,14.00
2023-03-25T02:15:18.650Z,14.00
2023-03-25T02:18:06.508Z,14.00
2023-03-25T02:21:18.300Z,14.00
2023-03-25T02:24:14.315Z,14.00
2023-03-25T02:27:04.028Z,14.00
2023-03-25T02:30:07.132Z,14.00
2023-03-25T02:33:16.472Z,14.00
2023-03-25T02:36:21.787Z,13.90
2023-03-25T02:39:19.035Z,14.00
2023-03-25T02:42:23.211Z,13.90
2023-03-25T02:45:07.726Z,14.00
2023-03-25T02:47:45.557Z,14.00
2023-03-25T02:50:23.916Z,14.00
2023-03-25T02:52:59.930Z,13.90
2023-03-25T02:55:33.593Z,13.90
2023-03-25T02:58:10.197Z,13.80
2023-03-25T03:00:38.484Z,13.90
2023-03-25T03:03:09.177Z,13.80
2023-03-25T03:05:50.582Z,13.80
2023-03-25T03:08:49.298Z,13.80
2023-03-25T03:11:55.858Z,13.80
2023-03-25T03:14:42.738Z,13.80
2023-03-25T03:17:35.721Z,13.80
2023-03-25T03:20:18.206Z,13.80
2023-03-25T03:23:21.273Z,13.80
2023-03-25T03:25:56.384Z,13.70
2023-03-25T03:28:48.941Z,13.70
2023-03-25T03:31:49.822Z,13.70
2023-03-25T03:34:59.669Z,13.60
2023-03-25T03:37:42.660Z,13.50
2023-03-25T03:40:21.684Z,13.50
2023-03-25T03:43:07.797Z,13.50
2023-03-25T03:45:48.552Z,13.50
2023-03-25T03:48:31.922Z,13.50
2023-03-25T03:51:09.540Z,13.50
2023-03-25T03:53:54.657Z,13.50
2023-03-25T03:57:09.309Z,13.50
2023-03-25T03:59:52.652Z,13.50
2023-03-25T04:02:45.237Z,13.40
2023-03-25T04:05:17.928Z,13.40
2023-03-25T04:08:03.790Z,13.40
2023-03-25T04:10:46.656Z,13.40
2023-03-25T04:13:17.426Z,13.50
2023-03-25T04:15:44.812Z,13.50
2023-03-25T04:18:12.479Z,13.40
2023-03-25T04:20:45.033Z,13.40
2023-03-25T04:23:16.479Z,13.40
2023-03-25T04:25:48.019Z,13.30
2023-03-25T04:28:17.799Z,13.20
2023-03-25T04:30:46.276Z,13.20
2023-03-25T04:33:14.700Z,13.20
2023-03-25T04:35:42.290Z,13.00
2023-03-25T04:38:10.036Z,12.90
2023-03-25T04:40:40.863Z,12.90
2023-03-25T04:43:09.443Z,12.90
2023-03-25T04:45:37.216Z,12.90
2023-03-25T04:48:06.458Z,12.90
2023-03-25T04:50:34.488Z,12.90
2023-03-25T04:53:01.925Z,12.90
2023-03-25T04:55:30.104Z,12.90
2023-03-25T04:57:57.277Z,12.90
2023-03-25T05:00:25.739Z,12.90
2023-03-25T05:02:57.056Z,12.90
2023-03-25T05:05:25.996Z,12.90
2023-03-25T05:07:55.446Z,12.90
2023-03-25T05:10:26.658Z,12.90
2023-03-25T05:13:07.988Z,12.90
2023-03-25T05:15:40.433Z,12.90
2023-03-25T05:18:14.639Z,12.90
2023-03-25T05:20:45.332Z,12.90
2023-03-25T05:23:18.177Z,12.90
2023-03-25T05:25:48.539Z,12.90
2023-03-25T05:28:16.577Z,12.90
2023-03-25T05:30:47.106Z,12.90
2023-03-25T05:33:17.624Z,12.80
2023-03-25T05:35:46.073Z,12.80
2023-03-25T05:38:21.469Z,12.90
2023-03-25T05:40:49.076Z,12.80
2023-03-25T05:43:23.314Z,12.80
2023-03-25T05:45:51.022Z,12.80
2023-03-25T05:48:18.447Z,12.80
2023-03-25T05:50:45.942Z,12.80
2023-03-25T05:53:17.984Z,12.80
2023-03-25T05:55:48.049Z,12.70
2023-03-25T05:58:15.155Z,12.80
2023-03-25T06:00:43.850Z,12.70
2023-03-25T06:03:11.428Z,12.70
2023-03-25T06:05:42.451Z,12.70
2023-03-25T06:08:09.765Z,12.70
2023-03-25T06:10:37.085Z,12.80
2023-03-25T06:13:04.457Z,12.80
2023-03-25T06:15:39.289Z,12.80
2023-03-25T06:18:07.675Z,12.80
2023-03-25T06:20:35.396Z,12.80
2023-03-25T06:23:02.628Z,12.80
2023-03-25T06:25:31.341Z,12.80
2023-03-25T06:28:03.112Z,12.80
2023-03-25T06:30:30.766Z,12.80
2023-03-25T06:32:58.967Z,12.80
2023-03-25T06:35:26.433Z,12.80
2023-03-25T06:37:53.865Z,12.80
2023-03-25T06:40:31.182Z,12.90
2023-03-25T06:43:01.633Z,12.90
2023-03-25T06:46:07.563Z,13.00
2023-03-25T06:48:54.798Z,13.00
2023-03-25T06:51:23.973Z,13.00
2023-03-25T06:53:51.297Z,13.00
2023-03-25T06:56:19.073Z,13.10
2023-03-25T06:58:46.441Z,13.10
2023-03-25T07:01:14.250Z,13.10
2023-03-25T07:03:41.534Z,13.10
2023-03-25T07:06:17.810Z,13.10
2023-03-25T07:08:45.274Z,13.10
2023-03-25T07:11:15.417Z,13.10
2023-03-25T07:13:42.732Z,13.20
2023-03-25T07:16:11.852Z,13.20
2023-03-25T07:18:41.831Z,13.20
2023-03-25T07:21:09.224Z,13.20
2023-03-25T07:23:36.697Z,13.30
2023-03-25T07:26:04.336Z,13.30
2023-03-25T07:28:31.629Z,13.40
2023-03-25T07:30:59.398Z,13.40
2023-03-25T07:33:26.517Z,13.50
2023-03-25T07:35:54.446Z,13.50
2023-03-25T07:38:21.882Z,13.50
2023-03-25T07:40:50.362Z,13.50
2023-03-25T07:43:17.789Z,13.50
2023-03-25T07:45:55.135Z,13.60
2023-03-25T07:48:23.124Z,13.70
2023-03-25T07:50:52.657Z,13.70
2023-03-25T07:53:20.673Z,13.80
2023-03-25T07:55:51.289Z,13.90
2023-03-25T07:58:19.963Z,13.90
2023-03-25T08:00:47.989Z,14.00
2023-03-25T08:03:16.218Z,14.10
2023-03-25T08:05:48.539Z,14.20
2023-03-25T08:08:16.125Z,14.20
2023-03-25T08:10:47.371Z,14.30
2023-03-25T08:13:15.081Z,14.30
2023-03-25T08:15:42.970Z,14.40
2023-03-25T08:18:10.230Z,14.50
2023-03-25T08:20:38.007Z,14.60
2023-03-25T08:23:10.767Z,14.70
2023-03-25T08:25:42.156Z,14.90
2023-03-25T08:28:09.231Z,15.00
2023-03-25T08:30:38.565Z,15.00
2023-03-25T08:33:11.051Z,15.10
2023-03-25T08:35:39.173Z,15.10
2023-03-25T08:38:06.810Z,15.30
2023-03-25T08:40:36.048Z,15.40
2023-03-25T08:43:07.263Z,15.50
2023-03-25T08:45:36.581Z,15.50
2023-03-25T08:48:05.088Z,15.70
2023-03-25T08:50:32.807Z,15.80
2023-03-25T08:53:00.119Z,16.00
2023-03-25T08:55:28.806Z,16.20
2023-03-25T08:57:56.309Z,16.40
2023-03-25T09:00:25.606Z,16.60
2023-03-25T09:02:52.778Z,16.80
2023-03-25T09:05:20.435Z,17.00
2023-03-25T09:07:47.783Z,17.10
2023-03-25T09:10:15.465Z,17.30
2023-03-25T09:12:43.005Z,17.40
2023-03-25T09:15:12.558Z,17.50
2023-03-25T09:17:40.334Z,17.60
2023-03-25T09:20:10.880Z,17.80
2023-03-25T09:22:40.228Z,18.00
2023-03-25T09:25:09.374Z,18.10
2023-03-25T09:27:45.612Z,18.20
2023-03-25T09:30:13.680Z,18.40
2023-03-25T09:32:41.707Z,18.50
2023-03-25T09:35:10.033Z,18.60
2023-03-25T09:37:37.781Z,18.90
2023-03-25T09:40:06.417Z,19.10
2023-03-25T09:42:48.610Z,19.20
2023-03-25T09:45:40.249Z,19.40
2023-03-25T09:48:49.972Z,19.40
2023-03-25T09:51:37.637Z,19.50
2023-03-25T09:54:25.008Z,19.50
2023-03-25T09:56:57.157Z,19.60
2023-03-25T09:59:42.030Z,19.60
2023-03-25T10:02:29.958Z,19.80
2023-03-25T10:05:25.674Z,19.90
2023-03-25T10:08:16.259Z,19.90
2023-03-25T10:11:21.550Z,20.00
2023-03-25T10:14:21.873Z,20.10
2023-03-25T10:17:57.176Z,20.20
2023-03-25T10:21:06.709Z,19.80
2023-03-25T10:23:59.400Z,19.60
2023-03-25T10:26:54.905Z,19.50
2023-03-25T10:29:34.260Z,19.30
2023-03-25T10:32:18.689Z,19.20
2023-03-25T10:34:53.050Z,19.00
2023-03-25T10:37:31.108Z,19.10
2023-03-25T10:40:14.441Z,18.80
2023-03-25T10:43:14.992Z,18.50
2023-03-25T10:45:43.969Z,18.10
2023-03-25T10:48:26.766Z,18.20
2023-03-25T10:51:15.896Z,18.40
2023-03-25T10:53:53.443Z,18.60
2023-03-25T10:56:27.966Z,18.70
2023-03-25T10:58:59.643Z,18.90
2023-03-25T11:01:39.504Z,19.10
2023-03-25T11:04:13.383Z,19.50
2023-03-25T11:06:46.944Z,19.70
2023-03-25T11:09:25.525Z,19.90
2023-03-25T11:11:54.126Z,20.20
2023-03-25T11:14:28.396Z,20.40
2023-03-25T11:17:06.097Z,20.60
2023-03-25T11:19:41.738Z,20.80
2023-03-25T11:22:17.802Z,21.10
2023-03-25T11:24:54.420Z,21.20
2023-03-25T11:27:29.362Z,21.20
2023-03-25T11:30:14.734Z,21.20
2023-03-25T11:32:42.625Z,21.10
2023-03-25T11:35:24.313Z,21.10
2023-03-25T11:38:01.615Z,21.20
2023-03-25T11:40:31.829Z,21.40
2023-03-25T11:43:04.541Z,21.60
2023-03-25T11:45:39.285Z,21.80
2023-03-25T11:48:22.929Z,22.00
2023-03-25T11:51:06.097Z,22.20
2023-03-25T11:53:34.395Z,22.30
2023-03-25T11:56:11.727Z,22.50
2023-03-25T11:58:42.366Z,22.70
2023-03-25T12:01:28.171Z,22.90
2023-03-25T12:04:15.970Z,22.80
2023-03-25T12:07:07.455Z,22.50
2023-03-25T12:09:35.252Z,22.20
2023-03-25T12:12:53.377Z,22.10
2023-03-25T12:16:13.195Z,22.10
2023-03-25T12:19:03.044Z,21.90
2023-03-25T12:21:49.004Z,21.10
2023-03-25T12:24:40.741Z,20.60
2023-03-25T12:27:43.223Z,20.50
2023-03-25T12:30:32.578Z,20.20
2023-03-25T12:33:28.131Z,20.20
2023-03-25T12:36:26.271Z,20.00
2023-03-25T12:39:41.660Z,19.80
2023-03-25T12:42:47.475Z,19.50
2023-03-25T12:45:48.974Z,18.90
2023-03-25T12:48:33.402Z,18.60
2023-03-25T12:51:37.827Z,18.30
2023-03-25T12:54:37.433Z,18.10
2023-03-25T12:57:53.419Z,18.10
2023-03-25T13:00:35.408Z,18.00
2023-03-25T13:03:42.142Z,17.90
2023-03-25T13:06:37.223Z,17.90
2023-03-25T13:09:25.952Z,17.90
2023-03-25T13:12:04.999Z,17.90
2023-03-25T13:14:55.588Z,17.90
2023-03-25T13:18:01.787Z,17.80
2023-03-25T13:20:34.613Z,17.80
2023-03-25T13:23:08.116Z,17.80
2023-03-25T13:26:11.840Z,17.70
2023-03-25T13:28:56.262Z,17.60
2023-03-25T13:31:30.477Z,17.60
2023-03-25T13:34:17.994Z,17.70
2023-03-25T13:37:19.360Z,17.80
2023-03-25T13:40:33.461Z,18.10
2023-03-25T13:43:33.756Z,18.50
2023-03-25T13:46:21.137Z,19.00
2023-03-25T13:49:14.042Z,19.60
2023-03-25T13:51:41.603Z,19.90
2023-03-25T13:54:41.108Z,20.10
2023-03-25T13:57:34.361Z,20.40
2023-03-25T14:00:11.332Z,20.60
2023-03-25T14:03:38.530Z,20.60
2023-03-25T14:06:39.542Z,20.60
2023-03-25T14:09:43.910Z,20.40
2023-03-25T14:12:24.134Z,20.20
2023-03-25T14:15:01.717Z,20.10
2023-03-25T14:17:30.262Z,20.00
2023-03-25T14:20:00.001Z,20.00
2023-03-25T14:22:41.376Z,19.80
2023-03-25T14:25:29.787Z,19.70
2023-03-25T14:27:57.290Z,19.50
2023-03-25T14:30:32.450Z,19.40
2023-03-25T14:33:03.859Z,19.30
2023-03-25T14:35:34.743Z,19.20
2023-03-25T14:38:09.468Z,19.00
2023-03-25T14:40:51.234Z,18.90
2023-03-25T14:43:38.137Z,18.80
2023-03-25T14:46:11.681Z,18.80
2023-03-25T14:48:48.046Z,19.00
2023-03-25T14:51:50.612Z,19.20
2023-03-25T14:54:23.182Z,19.40
2023-03-25T14:56:59.700Z,19.60
2023-03-25T14:59:36.207Z,19.70
2023-03-25T15:02:16.242Z,19.60
2023-03-25T15:04:45.917Z,19.50
2023-03-25T15:07:59.463Z,19.30
2023-03-25T15:10:34.999Z,19.20
2023-03-25T15:13:25.992Z,18.60
2023-03-25T15:16:05.471Z,18.30
2023-03-25T15:18:36.503Z,18.00
2023-03-25T15:21:16.775Z,17.80
2023-03-25T15:23:48.471Z,17.60
2023-03-25T15:26:45.443Z,17.60
2023-03-25T15:29:39.242Z,17.50
2023-03-25T15:32:49.090Z,17.40
2023-03-25T15:35:52.667Z,17.20
2023-03-25T15:38:53.287Z,17.10
2023-03-25T15:41:56.446Z,17.00
2023-03-25T15:45:01.588Z,16.90
2023-03-25T15:48:22.518Z,16.80
2023-03-25T15:51:27.321Z,16.70
2023-03-25T15:54:28.054Z,16.40
2023-03-25T15:57:03.675Z,16.30
2023-03-25T15:59:45.327Z,16.10
2023-03-25T16:02:31.133Z,16.00
2023-03-25T16:05:00.029Z,15.90
2023-03-25T16:07:30.964Z,15.90
2023-03-25T16:10:14.935Z,15.90
2023-03-25T16:12:46.503Z,15.90
2023-03-25T16:15:18.328Z,15.80
2023-03-25T16:17:46.873Z,15.70
2023-03-25T16:20:19.629Z,15.70
2023-03-25T16:22:54.948Z,15.70
2023-03-25T16:25:40.782Z,15.70
2023-03-25T16:28:23.329Z,15.60
2023-03-25T16:30:53.842Z,15.70
2023-03-25T16:33:31.541Z,15.70
2023-03-25T16:36:51.216Z,15.80
2023-03-25T16:39:20.254Z,15.80
2023-03-25T16:41:50.868Z,15.80
2023-03-25T16:44:23.898Z,15.80
2023-03-25T16:46:53.571Z,15.80
2023-03-25T16:49:34.264Z,15.80
2023-03-25T16:52:14.480Z,15.80
2023-03-25T16:55:04.906Z,15.80
2023-03-25T16:57:39.373Z,15.80
2023-03-25T17:00:23.830Z,15.80
2023-03-25T17:02:54.050Z,15.80
2023-03-25T17:05:29.909Z,15.70
2023-03-25T17:08:04.904Z,15.60
2023-03-25T17:10:47.532Z,15.60
2023-03-25T17:13:27.607Z,15.50
2023-03-25T17:15:55.836Z,15.50
2023-03-25T17:18:32.340Z,15.40
2023-03-25T17:21:02.398Z,15.40
2023-03-25T17:23:46.839Z,15.30
2023-03-25T17:26:20.250Z,15.30
2023-03-25T17:28:51.018Z,15.20
2023-03-25T17:31:30.093Z,15.20
2023-03-25T17:34:06.923Z,15.20
2023-03-25T17:36:38.271Z,15.10
2023-03-25T17:39:21.611Z,15.00
2023-03-25T17:42:03.561Z,15.00
2023-03-25T17:44:40.376Z,14.90
2023-03-25T17:47:14.605Z,14.80
2023-03-25T17:49:42.494Z,14.80
2023-03-25T17:52:11.310Z,14.80
2023-03-25T17:54:39.230Z,14.80
2023-03-25T17:57:17.155Z,14.80
2023-03-25T17:59:47.205Z,14.80
2023-03-25T18:02:17.379Z,14.70
2023-03-25T18:04:45.082Z,14.70
2023-03-25T18:07:12.427Z,14.70
2023-03-25T18:09:41.375Z,14.70
2023-03-25T18:12:09.151Z,14.60
2023-03-25T18:14:36.516Z,14.60
2023-03-25T18:17:04.748Z,14.60
2023-03-25T18:19:33.289Z,14.60
2023-03-25T18:22:09.995Z,14.60
2023-03-25T18:24:46.967Z,14.50
2023-03-25T18:27:14.728Z,14.50
2023-03-25T18:29:42.352Z,14.50
2023-03-25T18:32:09.689Z,14.50
2023-03-25T18:34:37.266Z,14.50
2023-03-25T18:37:04.925Z,14.40
2023-03-25T18:39:32.917Z,14.40
2023-03-25T18:42:00.703Z,14.40
2023-03-25T18:44:30.630Z,14.40
2023-03-25T18:46:57.794Z,14.40
2023-03-25T18:49:27.624Z,14.40
2023-03-25T18:51:55.039Z,14.30
2023-03-25T18:54:22.647Z,14.30
2023-03-25T18:56:49.847Z,14.30
2023-03-25T18:59:21.928Z,14.30
2023-03-25T19:01:49.516Z,14.30
2023-03-25T19:04:18.386Z,14.20
2023-03-25T19:06:45.566Z,14.20
2023-03-25T19:09:23.005Z,14.20
2023-03-25T19:11:50.523Z,14.10
2023-03-25T19:14:18.263Z,14.10
2023-03-25T19:16:57.105Z,14.10
2023-03-25T19:19:29.282Z,14.10
2023-03-25T19:21:56.544Z,14.00
2023-03-25T19:24:23.912Z,14.00
2023-03-25T19:26:51.474Z,14.00
2023-03-25T19:29:19.387Z,13.90
2023-03-25T19:31:48.123Z,13.90
2023-03-25T19:34:16.686Z,13.90
2023-03-25T19:36:46.986Z,13.80
2023-03-25T19:39:14.410Z,13.80
2023-03-25T19:41:42.890Z,13.70
2023-03-25T19:44:10.814Z,13.70
2023-03-25T19:46:38.181Z,13.70
2023-03-25T19:49:06.153Z,13.70
2023-03-25T19:51:33.304Z,13.60
2023-03-25T19:54:01.171Z,13.60
2023-03-25T19:56:28.286Z,13.60
2023-03-25T19:58:56.033Z,13.50
2023-03-25T20:01:23.771Z,13.50
2023-03-25T20:03:51.636Z,13.50
2023-03-25T20:06:18.743Z,13.40
2023-03-25T20:08:46.388Z,13.40
2023-03-25T20:11:13.737Z,13.40
2023-03-25T20:13:41.544Z,13.30
2023-03-25T20:16:08.822Z,13.30
2023-03-25T20:18:38.893Z,13.30
2023-03-25T20:21:09.977Z,13.20
2023-03-25T20:23:37.958Z,13.10
2023-03-25T20:26:05.726Z,13.10
2023-03-25T20:28:34.159Z,13.10
2023-03-25T20:31:01.681Z,13.00
2023-03-25T20:33:30.044Z,13.00
2023-03-25T20:35:57.734Z,13.00
2023-03-25T20:38:25.472Z,13.00
2023-03-25T20:40:54.740Z,12.90
2023-03-25T20:43:22.465Z,12.90
2023-03-25T20:45:54.391Z,12.80
2023-03-25T20:48:23.699Z,12.70
2023-03-25T20:50:58.544Z,12.70
2023-03-25T20:53:29.122Z,12.60
2023-03-25T20:56:02.483Z,12.60
2023-03-25T20:58:30.398Z,12.60
2023-03-25T21:00:59.190Z,12.50
2023-03-25T21:03:28.159Z,12.40
2023-03-25T21:06:07.457Z,12.50
2023-03-25T21:08:38.710Z,12.40
2023-03-25T21:11:07.244Z,12.40
2023-03-25T21:13:35.356Z,12.40
2023-03-25T21:16:02.861Z,12.40
2023-03-25T21:18:30.842Z,12.30
2023-03-25T21:21:01.097Z,12.30
2023-03-25T21:23:31.544Z,12.30
2023-03-25T21:26:01.692Z,12.40
2023-03-25T21:28:32.947Z,12.30
2023-03-25T21:31:19.492Z,12.30
2023-03-25T21:33:50.732Z,12.30
2023-03-25T21:36:24.236Z,12.20
2023-03-25T21:39:00.929Z,12.20
2023-03-25T21:41:29.961Z,12.20
2023-03-25T21:43:57.903Z,12.20
2023-03-25T21:46:27.763Z,12.20
2023-03-25T21:48:58.496Z,12.10
2023-03-25T21:51:26.807Z,12.10
2023-03-25T21:53:55.693Z,12.10
2023-03-25T21:56:28.016Z,12.10
2023-03-25T21:58:55.599Z,12.00
2023-03-25T22:01:28.584Z,11.80
2023-03-25T22:03:58.512Z,11.60
2023-03-25T22:06:29.992Z,11.30
2023-03-25T22:08:58.140Z,11.20
2023-03-25T22:11:31.246Z,11.10
2023-03-25T22:13:58.692Z,11.10
2023-03-25T22:16:26.723Z,11.20
2023-03-25T22:18:54.819Z,11.10
2023-03-25T22:21:26.153Z,11.00
2023-03-25T22:23:57.586Z,11.00
2023-03-25T22:26:27.207Z,11.00
2023-03-25T22:29:01.630Z,11.10
2023-03-25T22:31:32.154Z,11.10
2023-03-25T22:34:11.114Z,10.90
2023-03-25T22:36:42.557Z,10.90
2023-03-25T22:39:10.639Z,10.90
2023-03-25T22:41:37.768Z,10.90
2023-03-25T22:44:06.068Z,10.80
2023-03-25T22:46:34.253Z,10.80
2023-03-25T22:49:02.121Z,10.80
2023-03-25T22:51:29.285Z,10.90
2023-03-25T22:53:56.997Z,11.00
2023-03-25T22:56:26.015Z,11.10
2023-03-25T22:58:54.189Z,11.10
2023-03-25T23:01:25.496Z,11.10
2023-03-25T23:03:54.647Z,11.00
2023-03-25T23:06:23.498Z,11.10
2023-03-25T23:08:52.106Z,11.10
2023-03-25T23:11:24.282Z,11.00
2023-03-25T23:13:57.168Z,11.00
2023-03-25T23:16:28.943Z,11.10
2023-03-25T23:18:58.159Z,11.00
2023-03-25T23:21:29.361Z,11.00
2023-03-25T23:24:00.650Z,10.90
2023-03-25T23:26:37.071Z,10.90
2023-03-25T23:29:11.348Z,10.80
2023-03-25T23:31:42.176Z,10.80
2023-03-25T23:34:14.579Z,10.80
2023-03-25T23:36:43.255Z,10.80
2023-03-25T23:39:17.293Z,10.80
2023-03-25T23:41:44.746Z,10.80
2023-03-25T23:44:13.191Z,10.80
2023-03-25T23:46:42.034Z,10.80
2023-03-25T23:49:10.703Z,10.60
2023-03-25T23:51:41.698Z,10.40
2023-03-25T23:54:16.192Z,10.30
2023-03-25T23:56:44.198Z,10.30
2023-03-25T23:59:12.180Z,10.30
